sensor_id;sensor_type;location;lat;lon;timestamp;P1;durP1;ratioP1;P2;durP2;ratioP2
70078;SDS011;57451;52.496;13.456;2023-06-14T00:01:51;5.97;;;2.45;;
70078;SDS011;57451;52.496;13.456;2023-06-14T00:04:19;4.67;;;2.40;;
70078;SDS011;57451;52.496;13.456;2023-06-14T00:06:47;6.22;;;2.45;;
70078;SDS011;57451;52.496;13.456;2023-06-14T00:09:18;5.03;;;2.72;;
70078;SDS011;57451;52.496;13.456;2023-06-14T00:11:45;5.13;;;2.65;;
70078;SDS011;57451;52.496;13.456;2023-06-14T00:14:14;4.88;;;2.50;;
70078;SDS011;57451;52.496;13.456;2023-06-14T00:16:42;5.67;;;2.60;;
70078;SDS011;57451;52.496;13.456;2023-06-14T00:19:09;5.25;;;2.90;;
70078;SDS011;57451;52.496;13.456;2023-06-14T00:21:37;4.78;;;2.80;;
70078;SDS011;57451;52.496;13.456;2023-06-14T00:24:05;6.70;;;2.80;;
70078;SDS011;57451;52.496;13.456;2023-06-14T00:26:33;5.43;;;2.95;;
70078;SDS011;57451;52.496;13.456;2023-06-14T00:29:01;5.33;;;2.50;;
70078;SDS011;57451;52.496;13.456;2023-06-14T00:31:31;8.18;;;2.83;;
70078;SDS011;57451;52.496;13.456;2023-06-14T00:33:58;4.95;;;2.80;;
70078;SDS011;57451;52.496;13.456;2023-06-14T00:36:26;6.03;;;3.00;;
70078;SDS011;57451;52.496;13.456;2023-06-14T00:38:53;6.70;;;3.03;;
70078;SDS011;57451;52.496;13.456;2023-06-14T00:41:21;5.90;;;3.10;;
70078;SDS011;57451;52.496;13.456;2023-06-14T00:43:49;6.50;;;3.00;;
70078;SDS011;57451;52.496;13.456;2023-06-14T00:46:17;6.18;;;3.10;;
70078;SDS011;57451;52.496;13.456;2023-06-14T00:48:47;8.05;;;3.00;;
70078;SDS011;57451;52.496;13.456;2023-06-14T00:51:15;6.25;;;3.05;;
70078;SDS011;57451;52.496;13.456;2023-06-14T00:53:43;5.23;;;3.27;;
70078;SDS011;57451;52.496;13.456;2023-06-14T00:56:14;6.40;;;3.25;;
70078;SDS011;57451;52.496;13.456;2023-06-14T00:58:42;5.57;;;3.40;;
70078;SDS011;57451;52.496;13.456;2023-06-14T01:01:10;6.35;;;3.42;;
70078;SDS011;57451;52.496;13.456;2023-06-14T01:03:38;6.85;;;3.55;;
70078;SDS011;57451;52.496;13.456;2023-06-14T01:06:12;7.27;;;3.60;;
70078;SDS011;57451;52.496;13.456;2023-06-14T01:08:57;7.50;;;3.67;;
70078;SDS011;57451;52.496;13.456;2023-06-14T01:11:31;9.32;;;4.00;;
70078;SDS011;57451;52.496;13.456;2023-06-14T01:14:04;5.50;;;3.30;;
70078;SDS011;57451;52.496;13.456;2023-06-14T01:16:32;7.00;;;3.75;;
70078;SDS011;57451;52.496;13.456;2023-06-14T01:19:03;7.57;;;3.77;;
70078;SDS011;57451;52.496;13.456;2023-06-14T01:21:33;7.35;;;3.80;;
70078;SDS011;57451;52.496;13.456;2023-06-14T01:24:10;8.13;;;3.67;;
70078;SDS011;57451;52.496;13.456;2023-06-14T01:26:38;9.80;;;3.92;;
70078;SDS011;57451;52.496;13.456;2023-06-14T01:29:12;6.57;;;3.72;;
70078;SDS011;57451;52.496;13.456;2023-06-14T01:31:44;6.23;;;3.90;;
70078;SDS011;57451;52.496;13.456;2023-06-14T01:34:13;5.90;;;3.80;;
70078;SDS011;57451;52.496;13.456;2023-06-14T01:36:41;6.43;;;3.80;;
70078;SDS011;57451;52.496;13.456;2023-06-14T01:39:13;7.03;;;4.22;;
70078;SDS011;57451;52.496;13.456;2023-06-14T01:41:42;6.03;;;3.95;;
70078;SDS011;57451;52.496;13.456;2023-06-14T01:44:11;7.50;;;4.37;;
70078;SDS011;57451;52.496;13.456;2023-06-14T01:46:40;6.53;;;3.92;;
70078;SDS011;57451;52.496;13.456;2023-06-14T01:49:09;6.55;;;3.95;;
70078;SDS011;57451;52.496;13.456;2023-06-14T01:51:37;6.30;;;4.05;;
70078;SDS011;57451;52.496;13.456;2023-06-14T01:54:05;7.18;;;4.10;;
70078;SDS011;57451;52.496;13.456;2023-06-14T01:56:33;7.03;;;3.83;;
70078;SDS011;57451;52.496;13.456;2023-06-14T01:59:01;9.40;;;4.20;;
70078;SDS011;57451;52.496;13.456;2023-06-14T02:01:28;6.22;;;3.63;;
70078;SDS011;57451;52.496;13.456;2023-06-14T02:03:57;6.57;;;3.70;;
70078;SDS011;57451;52.496;13.456;2023-06-14T02:06:26;8.35;;;4.22;;
70078;SDS011;57451;52.496;13.456;2023-06-14T02:08:55;6.27;;;4.27;;
70078;SDS011;57451;52.496;13.456;2023-06-14T02:11:22;6.57;;;4.18;;
70078;SDS011;57451;52.496;13.456;2023-06-14T02:13:51;6.35;;;4.38;;
70078;SDS011;57451;52.496;13.456;2023-06-14T02:16:19;7.43;;;4.57;;
70078;SDS011;57451;52.496;13.456;2023-06-14T02:18:47;8.38;;;4.28;;
70078;SDS011;57451;52.496;13.456;2023-06-14T02:21:16;8.13;;;4.80;;
70078;SDS011;57451;52.496;13.456;2023-06-14T02:23:45;8.18;;;4.57;;
70078;SDS011;57451;52.496;13.456;2023-06-14T02:26:13;6.53;;;4.25;;
70078;SDS011;57451;52.496;13.456;2023-06-14T02:28:40;6.55;;;4.35;;
70078;SDS011;57451;52.496;13.456;2023-06-14T02:31:09;9.02;;;4.70;;
70078;SDS011;57451;52.496;13.456;2023-06-14T02:33:37;7.10;;;4.07;;
70078;SDS011;57451;52.496;13.456;2023-06-14T02:36:05;7.38;;;4.55;;
70078;SDS011;57451;52.496;13.456;2023-06-14T02:38:34;8.70;;;5.00;;
70078;SDS011;57451;52.496;13.456;2023-06-14T02:41:01;6.90;;;4.40;;
70078;SDS011;57451;52.496;13.456;2023-06-14T02:43:29;9.10;;;4.70;;
70078;SDS011;57451;52.496;13.456;2023-06-14T02:45:58;7.13;;;4.80;;
70078;SDS011;57451;52.496;13.456;2023-06-14T02:48:27;8.88;;;4.80;;
70078;SDS011;57451;52.496;13.456;2023-06-14T02:50:54;7.85;;;4.35;;
70078;SDS011;57451;52.496;13.456;2023-06-14T02:53:23;8.38;;;4.32;;
70078;SDS011;57451;52.496;13.456;2023-06-14T02:55:50;7.80;;;5.03;;
70078;SDS011;57451;52.496;13.456;2023-06-14T02:58:19;8.43;;;4.73;;
70078;SDS011;57451;52.496;13.456;2023-06-14T03:00:46;8.48;;;5.00;;
70078;SDS011;57451;52.496;13.456;2023-06-14T03:03:14;9.90;;;4.93;;
70078;SDS011;57451;52.496;13.456;2023-06-14T03:05:51;8.40;;;4.80;;
70078;SDS011;57451;52.496;13.456;2023-06-14T03:08:24;7.97;;;5.00;;
70078;SDS011;57451;52.496;13.456;2023-06-14T03:10:55;7.70;;;4.50;;
70078;SDS011;57451;52.496;13.456;2023-06-14T03:13:23;9.52;;;4.60;;
70078;SDS011;57451;52.496;13.456;2023-06-14T03:15:51;7.30;;;5.20;;
70078;SDS011;57451;52.496;13.456;2023-06-14T03:18:21;7.97;;;5.05;;
70078;SDS011;57451;52.496;13.456;2023-06-14T03:20:55;9.60;;;5.57;;
70078;SDS011;57451;52.496;13.456;2023-06-14T03:23:25;8.27;;;5.20;;
70078;SDS011;57451;52.496;13.456;2023-06-14T03:25:52;9.27;;;5.68;;
70078;SDS011;57451;52.496;13.456;2023-06-14T03:28:20;9.30;;;5.30;;
70078;SDS011;57451;52.496;13.456;2023-06-14T03:30:48;10.65;;;5.85;;
70078;SDS011;57451;52.496;13.456;2023-06-14T03:33:16;8.23;;;5.40;;
70078;SDS011;57451;52.496;13.456;2023-06-14T03:35:44;10.33;;;5.93;;
70078;SDS011;57451;52.496;13.456;2023-06-14T03:38:13;9.43;;;5.40;;
70078;SDS011;57451;52.496;13.456;2023-06-14T03:40:41;8.50;;;5.30;;
70078;SDS011;57451;52.496;13.456;2023-06-14T03:43:08;8.02;;;5.03;;
70078;SDS011;57451;52.496;13.456;2023-06-14T03:45:36;8.88;;;5.18;;
70078;SDS011;57451;52.496;13.456;2023-06-14T03:48:06;8.53;;;4.93;;
70078;SDS011;57451;52.496;13.456;2023-06-14T03:50:36;8.85;;;5.13;;
70078;SDS011;57451;52.496;13.456;2023-06-14T03:53:05;9.27;;;5.30;;
70078;SDS011;57451;52.496;13.456;2023-06-14T03:55:34;10.48;;;5.65;;
70078;SDS011;57451;52.496;13.456;2023-06-14T03:58:24;8.57;;;5.40;;
70078;SDS011;57451;52.496;13.456;2023-06-14T04:00:51;9.77;;;5.50;;
70078;SDS011;57451;52.496;13.456;2023-06-14T04:03:19;11.32;;;6.00;;
70078;SDS011;57451;52.496;13.456;2023-06-14T04:05:52;8.73;;;5.53;;
70078;SDS011;57451;52.496;13.456;2023-06-14T04:08:23;8.30;;;5.60;;
70078;SDS011;57451;52.496;13.456;2023-06-14T04:10:52;10.05;;;5.60;;
70078;SDS011;57451;52.496;13.456;2023-06-14T04:13:20;13.33;;;5.67;;
70078;SDS011;57451;52.496;13.456;2023-06-14T04:15:48;8.93;;;5.50;;
70078;SDS011;57451;52.496;13.456;2023-06-14T04:18:21;8.70;;;5.68;;
70078;SDS011;57451;52.496;13.456;2023-06-14T04:20:51;10.25;;;5.40;;
70078;SDS011;57451;52.496;13.456;2023-06-14T04:23:18;9.77;;;5.82;;
70078;SDS011;57451;52.496;13.456;2023-06-14T04:25:46;7.63;;;5.63;;
70078;SDS011;57451;52.496;13.456;2023-06-14T04:28:15;11.68;;;5.82;;
70078;SDS011;57451;52.496;13.456;2023-06-14T04:30:44;9.10;;;5.72;;
70078;SDS011;57451;52.496;13.456;2023-06-14T04:33:16;11.77;;;5.78;;
70078;SDS011;57451;52.496;13.456;2023-06-14T04:35:45;7.68;;;5.53;;
70078;SDS011;57451;52.496;13.456;2023-06-14T04:38:15;13.43;;;6.07;;
70078;SDS011;57451;52.496;13.456;2023-06-14T04:40:43;9.30;;;5.93;;
70078;SDS011;57451;52.496;13.456;2023-06-14T04:46:23;13.48;;;6.32;;
70078;SDS011;57451;52.496;13.456;2023-06-14T04:48:50;9.25;;;5.30;;
70078;SDS011;57451;52.496;13.456;2023-06-14T04:51:18;11.53;;;6.30;;
70078;SDS011;57451;52.496;13.456;2023-06-14T04:53:48;10.43;;;5.90;;
70078;SDS011;57451;52.496;13.456;2023-06-14T04:56:19;8.23;;;5.82;;
70078;SDS011;57451;52.496;13.456;2023-06-14T04:58:47;11.45;;;5.97;;
70078;SDS011;57451;52.496;13.456;2023-06-14T05:01:15;11.57;;;5.78;;
70078;SDS011;57451;52.496;13.456;2023-06-14T05:03:44;9.37;;;5.77;;
70078;SDS011;57451;52.496;13.456;2023-06-14T05:06:12;9.30;;;5.53;;
70078;SDS011;57451;52.496;13.456;2023-06-14T05:08:41;12.82;;;5.47;;
70078;SDS011;57451;52.496;13.456;2023-06-14T05:11:08;9.77;;;5.95;;
70078;SDS011;57451;52.496;13.456;2023-06-14T05:13:36;10.38;;;5.88;;
70078;SDS011;57451;52.496;13.456;2023-06-14T05:16:03;9.47;;;6.23;;
70078;SDS011;57451;52.496;13.456;2023-06-14T05:18:31;9.73;;;5.88;;
70078;SDS011;57451;52.496;13.456;2023-06-14T05:21:02;9.65;;;5.95;;
70078;SDS011;57451;52.496;13.456;2023-06-14T05:23:31;8.88;;;5.65;;
70078;SDS011;57451;52.496;13.456;2023-06-14T05:25:58;9.52;;;6.18;;
70078;SDS011;57451;52.496;13.456;2023-06-14T05:28:26;10.83;;;6.13;;
70078;SDS011;57451;52.496;13.456;2023-06-14T05:30:53;9.70;;;6.43;;
70078;SDS011;57451;52.496;13.456;2023-06-14T05:33:21;10.40;;;6.13;;
70078;SDS011;57451;52.496;13.456;2023-06-14T05:35:48;11.23;;;6.28;;
70078;SDS011;57451;52.496;13.456;2023-06-14T05:38:17;10.00;;;5.55;;
70078;SDS011;57451;52.496;13.456;2023-06-14T05:40:45;10.37;;;5.83;;
70078;SDS011;57451;52.496;13.456;2023-06-14T05:43:12;11.52;;;6.07;;
70078;SDS011;57451;52.496;13.456;2023-06-14T05:45:40;9.35;;;5.75;;
70078;SDS011;57451;52.496;13.456;2023-06-14T05:48:07;10.52;;;6.20;;
70078;SDS011;57451;52.496;13.456;2023-06-14T05:50:35;10.43;;;6.13;;
70078;SDS011;57451;52.496;13.456;2023-06-14T05:53:03;10.80;;;5.80;;
70078;SDS011;57451;52.496;13.456;2023-06-14T05:55:31;11.55;;;5.70;;
70078;SDS011;57451;52.496;13.456;2023-06-14T05:57:59;11.65;;;6.30;;
70078;SDS011;57451;52.496;13.456;2023-06-14T06:00:27;11.93;;;6.43;;
70078;SDS011;57451;52.496;13.456;2023-06-14T06:02:55;10.57;;;6.00;;
70078;SDS011;57451;52.496;13.456;2023-06-14T06:05:24;10.33;;;5.80;;
70078;SDS011;57451;52.496;13.456;2023-06-14T06:07:52;11.73;;;6.40;;
70078;SDS011;57451;52.496;13.456;2023-06-14T06:10:19;10.75;;;5.70;;
70078;SDS011;57451;52.496;13.456;2023-06-14T06:12:48;14.20;;;6.32;;
70078;SDS011;57451;52.496;13.456;2023-06-14T06:15:18;9.52;;;6.10;;
70078;SDS011;57451;52.496;13.456;2023-06-14T06:17:46;10.10;;;6.20;;
70078;SDS011;57451;52.496;13.456;2023-06-14T06:20:22;12.25;;;5.95;;
70078;SDS011;57451;52.496;13.456;2023-06-14T06:22:56;9.88;;;5.97;;
70078;SDS011;57451;52.496;13.456;2023-06-14T06:25:23;9.30;;;5.75;;
70078;SDS011;57451;52.496;13.456;2023-06-14T06:27:54;13.20;;;6.22;;
70078;SDS011;57451;52.496;13.456;2023-06-14T06:30:25;9.83;;;5.90;;
70078;SDS011;57451;52.496;13.456;2023-06-14T06:32:52;8.77;;;5.68;;
70078;SDS011;57451;52.496;13.456;2023-06-14T06:35:20;8.98;;;5.35;;
70078;SDS011;57451;52.496;13.456;2023-06-14T06:37:47;10.02;;;5.50;;
70078;SDS011;57451;52.496;13.456;2023-06-14T06:40:15;11.32;;;5.57;;
70078;SDS011;57451;52.496;13.456;2023-06-14T06:42:43;12.40;;;5.80;;
70078;SDS011;57451;52.496;13.456;2023-06-14T06:45:13;11.00;;;5.22;;
70078;SDS011;57451;52.496;13.456;2023-06-14T06:47:41;9.43;;;5.63;;
70078;SDS011;57451;52.496;13.456;2023-06-14T06:50:09;8.43;;;5.43;;
70078;SDS011;57451;52.496;13.456;2023-06-14T06:52:37;8.63;;;5.32;;
70078;SDS011;57451;52.496;13.456;2023-06-14T06:55:04;11.93;;;5.50;;
70078;SDS011;57451;52.496;13.456;2023-06-14T06:57:32;9.48;;;5.53;;
70078;SDS011;57451;52.496;13.456;2023-06-14T06:59:59;7.88;;;5.30;;
70078;SDS011;57451;52.496;13.456;2023-06-14T07:02:28;7.10;;;5.05;;
70078;SDS011;57451;52.496;13.456;2023-06-14T07:04:57;8.68;;;5.30;;
70078;SDS011;57451;52.496;13.456;2023-06-14T07:07:25;10.33;;;5.43;;
70078;SDS011;57451;52.496;13.456;2023-06-14T07:09:52;10.27;;;5.43;;
70078;SDS011;57451;52.496;13.456;2023-06-14T07:12:20;8.55;;;5.70;;
70078;SDS011;57451;52.496;13.456;2023-06-14T07:14:47;13.00;;;5.60;;
70078;SDS011;57451;52.496;13.456;2023-06-14T07:17:15;11.90;;;5.25;;
70078;SDS011;57451;52.496;13.456;2023-06-14T07:19:43;9.20;;;5.43;;
70078;SDS011;57451;52.496;13.456;2023-06-14T07:22:14;10.73;;;5.38;;
70078;SDS011;57451;52.496;13.456;2023-06-14T07:24:43;13.95;;;5.30;;
70078;SDS011;57451;52.496;13.456;2023-06-14T07:27:11;9.00;;;5.13;;
70078;SDS011;57451;52.496;13.456;2023-06-14T07:29:41;8.13;;;5.00;;
70078;SDS011;57451;52.496;13.456;2023-06-14T07:32:09;11.90;;;4.87;;
70078;SDS011;57451;52.496;13.456;2023-06-14T07:34:36;10.25;;;5.35;;
70078;SDS011;57451;52.496;13.456;2023-06-14T07:37:05;10.40;;;5.70;;
70078;SDS011;57451;52.496;13.456;2023-06-14T07:39:32;7.65;;;4.93;;
70078;SDS011;57451;52.496;13.456;2023-06-14T07:42:00;8.50;;;5.57;;
70078;SDS011;57451;52.496;13.456;2023-06-14T07:44:29;8.13;;;5.07;;
70078;SDS011;57451;52.496;13.456;2023-06-14T07:46:59;8.68;;;5.53;;
70078;SDS011;57451;52.496;13.456;2023-06-14T07:49:27;10.45;;;5.53;;
70078;SDS011;57451;52.496;13.456;2023-06-14T07:51:54;9.82;;;5.47;;
70078;SDS011;57451;52.496;13.456;2023-06-14T07:54:23;8.48;;;5.30;;
70078;SDS011;57451;52.496;13.456;2023-06-14T07:56:53;12.10;;;5.30;;
70078;SDS011;57451;52.496;13.456;2023-06-14T07:59:20;9.75;;;5.00;;
70078;SDS011;57451;52.496;13.456;2023-06-14T08:01:48;10.82;;;4.82;;
70078;SDS011;57451;52.496;13.456;2023-06-14T08:04:15;9.13;;;4.90;;
70078;SDS011;57451;52.496;13.456;2023-06-14T08:06:43;9.90;;;4.97;;
70078;SDS011;57451;52.496;13.456;2023-06-14T08:09:15;8.70;;;5.00;;
70078;SDS011;57451;52.496;13.456;2023-06-14T08:11:44;8.75;;;4.70;;
70078;SDS011;57451;52.496;13.456;2023-06-14T08:14:12;8.77;;;4.93;;
70078;SDS011;57451;52.496;13.456;2023-06-14T08:16:39;8.00;;;4.85;;
70078;SDS011;57451;52.496;13.456;2023-06-14T08:19:07;8.35;;;4.72;;
70078;SDS011;57451;52.496;13.456;2023-06-14T08:21:35;9.70;;;4.70;;
70078;SDS011;57451;52.496;13.456;2023-06-14T08:24:03;7.70;;;4.78;;
70078;SDS011;57451;52.496;13.456;2023-06-14T08:26:31;8.93;;;4.45;;
70078;SDS011;57451;52.496;13.456;2023-06-14T08:29:00;8.63;;;4.80;;
70078;SDS011;57451;52.496;13.456;2023-06-14T08:31:28;8.95;;;4.05;;
70078;SDS011;57451;52.496;13.456;2023-06-14T08:33:59;9.57;;;4.70;;
70078;SDS011;57451;52.496;13.456;2023-06-14T08:36:26;7.07;;;4.30;;
70078;SDS011;57451;52.496;13.456;2023-06-14T08:38:54;9.30;;;4.47;;
70078;SDS011;57451;52.496;13.456;2023-06-14T08:41:22;8.82;;;3.97;;
70078;SDS011;57451;52.496;13.456;2023-06-14T08:43:52;6.72;;;3.78;;
70078;SDS011;57451;52.496;13.456;2023-06-14T08:46:21;7.33;;;3.50;;
70078;SDS011;57451;52.496;13.456;2023-06-14T08:48:49;9.10;;;3.65;;
70078;SDS011;57451;52.496;13.456;2023-06-14T08:51:19;8.70;;;3.80;;
70078;SDS011;57451;52.496;13.456;2023-06-14T08:53:51;8.48;;;3.67;;
70078;SDS011;57451;52.496;13.456;2023-06-14T08:56:25;6.07;;;3.55;;
70078;SDS011;57451;52.496;13.456;2023-06-14T08:58:55;8.37;;;3.90;;
70078;SDS011;57451;52.496;13.456;2023-06-14T09:04:38;9.75;;;4.60;;
70078;SDS011;57451;52.496;13.456;2023-06-14T09:07:06;6.28;;;3.90;;
70078;SDS011;57451;52.496;13.456;2023-06-14T09:09:35;6.22;;;4.10;;
70078;SDS011;57451;52.496;13.456;2023-06-14T09:12:06;6.47;;;3.77;;
70078;SDS011;57451;52.496;13.456;2023-06-14T09:14:37;7.70;;;3.75;;
70078;SDS011;57451;52.496;13.456;2023-06-14T09:17:07;8.70;;;4.38;;
70078;SDS011;57451;52.496;13.456;2023-06-14T09:19:35;7.97;;;4.00;;
70078;SDS011;57451;52.496;13.456;2023-06-14T09:22:03;5.75;;;3.95;;
70078;SDS011;57451;52.496;13.456;2023-06-14T09:24:32;6.90;;;3.90;;
70078;SDS011;57451;52.496;13.456;2023-06-14T09:26:59;6.50;;;3.72;;
70078;SDS011;57451;52.496;13.456;2023-06-14T09:29:28;8.90;;;3.70;;
70078;SDS011;57451;52.496;13.456;2023-06-14T09:31:57;6.13;;;3.90;;
70078;SDS011;57451;52.496;13.456;2023-06-14T09:34:27;6.75;;;4.10;;
70078;SDS011;57451;52.496;13.456;2023-06-14T09:36:54;7.13;;;3.93;;
70078;SDS011;57451;52.496;13.456;2023-06-14T09:39:23;6.65;;;3.80;;
70078;SDS011;57451;52.496;13.456;2023-06-14T09:41:51;5.95;;;3.83;;
70078;SDS011;57451;52.496;13.456;2023-06-14T09:44:19;8.32;;;3.80;;
70078;SDS011;57451;52.496;13.456;2023-06-14T09:46:48;6.75;;;3.70;;
70078;SDS011;57451;52.496;13.456;2023-06-14T09:49:16;9.90;;;4.00;;
70078;SDS011;57451;52.496;13.456;2023-06-14T09:51:45;7.43;;;3.90;;
70078;SDS011;57451;52.496;13.456;2023-06-14T09:54:20;7.93;;;3.88;;
70078;SDS011;57451;52.496;13.456;2023-06-14T09:56:49;6.07;;;4.00;;
70078;SDS011;57451;52.496;13.456;2023-06-14T09:59:19;7.50;;;3.97;;
70078;SDS011;57451;52.496;13.456;2023-06-14T10:01:57;6.77;;;3.80;;
70078;SDS011;57451;52.496;13.456;2023-06-14T10:04:27;8.68;;;4.10;;
70078;SDS011;57451;52.496;13.456;2023-06-14T10:06:59;5.45;;;3.67;;
70078;SDS011;57451;52.496;13.456;2023-06-14T10:09:29;8.50;;;4.03;;
70078;SDS011;57451;52.496;13.456;2023-06-14T10:11:59;7.43;;;4.03;;
70078;SDS011;57451;52.496;13.456;2023-06-14T10:14:27;7.43;;;3.67;;
70078;SDS011;57451;52.496;13.456;2023-06-14T10:16:56;8.68;;;3.88;;
70078;SDS011;57451;52.496;13.456;2023-06-14T10:19:32;7.18;;;3.80;;
70078;SDS011;57451;52.496;13.456;2023-06-14T10:22:04;7.10;;;4.28;;
70078;SDS011;57451;52.496;13.456;2023-06-14T10:24:38;8.20;;;4.05;;
70078;SDS011;57451;52.496;13.456;2023-06-14T10:27:09;10.73;;;4.50;;
70078;SDS011;57451;52.496;13.456;2023-06-14T10:32:31;8.75;;;3.80;;
70078;SDS011;57451;52.496;13.456;2023-06-14T10:35:00;6.57;;;3.90;;
70078;SDS011;57451;52.496;13.456;2023-06-14T10:37:32;8.90;;;4.22;;
70078;SDS011;57451;52.496;13.456;2023-06-14T10:40:00;8.67;;;3.83;;
70078;SDS011;57451;52.496;13.456;2023-06-14T10:42:28;7.78;;;3.80;;
70078;SDS011;57451;52.496;13.456;2023-06-14T10:44:58;7.43;;;3.90;;
70078;SDS011;57451;52.496;13.456;2023-06-14T10:47:28;8.63;;;3.80;;
70078;SDS011;57451;52.496;13.456;2023-06-14T10:49:57;6.75;;;3.88;;
70078;SDS011;57451;52.496;13.456;2023-06-14T10:52:31;8.20;;;3.87;;
70078;SDS011;57451;52.496;13.456;2023-06-14T10:55:03;7.18;;;4.00;;
70078;SDS011;57451;52.496;13.456;2023-06-14T10:57:33;9.45;;;3.75;;
70078;SDS011;57451;52.496;13.456;2023-06-14T11:00:17;9.07;;;3.67;;
70078;SDS011;57451;52.496;13.456;2023-06-14T11:02:56;9.32;;;4.43;;
70078;SDS011;57451;52.496;13.456;2023-06-14T11:05:48;8.33;;;4.13;;
70078;SDS011;57451;52.496;13.456;2023-06-14T11:08:26;7.93;;;4.07;;
70078;SDS011;57451;52.496;13.456;2023-06-14T11:11:06;8.48;;;3.92;;
70078;SDS011;57451;52.496;13.456;2023-06-14T11:13:36;6.85;;;3.67;;
70078;SDS011;57451;52.496;13.456;2023-06-14T11:16:10;6.38;;;3.88;;
70078;SDS011;57451;52.496;13.456;2023-06-14T11:18:39;6.73;;;3.87;;
70078;SDS011;57451;52.496;13.456;2023-06-14T11:21:07;7.22;;;3.95;;
70078;SDS011;57451;52.496;13.456;2023-06-14T11:23:37;7.80;;;3.60;;
70078;SDS011;57451;52.496;13.456;2023-06-14T11:26:04;6.15;;;3.63;;
70078;SDS011;57451;52.496;13.456;2023-06-14T11:28:35;8.90;;;3.80;;
70078;SDS011;57451;52.496;13.456;2023-06-14T11:31:04;8.00;;;4.00;;
70078;SDS011;57451;52.496;13.456;2023-06-14T11:33:32;7.60;;;3.78;;
70078;SDS011;57451;52.496;13.456;2023-06-14T11:36:01;5.97;;;3.58;;
70078;SDS011;57451;52.496;13.456;2023-06-14T11:38:29;8.25;;;3.95;;
70078;SDS011;57451;52.496;13.456;2023-06-14T11:41:01;7.43;;;4.00;;
70078;SDS011;57451;52.496;13.456;2023-06-14T11:43:29;8.07;;;3.70;;
70078;SDS011;57451;52.496;13.456;2023-06-14T11:45:58;5.60;;;3.60;;
70078;SDS011;57451;52.496;13.456;2023-06-14T11:48:35;8.25;;;3.85;;
70078;SDS011;57451;52.496;13.456;2023-06-14T11:51:04;6.70;;;3.92;;
70078;SDS011;57451;52.496;13.456;2023-06-14T11:53:32;6.53;;;4.03;;
70078;SDS011;57451;52.496;13.456;2023-06-14T11:56:02;8.27;;;3.67;;
70078;SDS011;57451;52.496;13.456;2023-06-14T11:58:30;7.05;;;3.83;;
70078;SDS011;57451;52.496;13.456;2023-06-14T12:00:57;6.22;;;3.13;;
70078;SDS011;57451;52.496;13.456;2023-06-14T12:03:25;6.93;;;3.60;;
70078;SDS011;57451;52.496;13.456;2023-06-14T12:06:04;6.10;;;3.38;;
70078;SDS011;57451;52.496;13.456;2023-06-14T12:08:33;8.60;;;4.00;;
70078;SDS011;57451;52.496;13.456;2023-06-14T12:11:10;6.43;;;3.83;;
70078;SDS011;57451;52.496;13.456;2023-06-14T12:13:38;6.43;;;4.00;;
70078;SDS011;57451;52.496;13.456;2023-06-14T12:16:07;8.90;;;3.92;;
70078;SDS011;57451;52.496;13.456;2023-06-14T12:18:36;6.85;;;3.92;;
70078;SDS011;57451;52.496;13.456;2023-06-14T12:21:06;6.83;;;3.60;;
70078;SDS011;57451;52.496;13.456;2023-06-14T12:23:44;6.45;;;3.95;;
70078;SDS011;57451;52.496;13.456;2023-06-14T12:26:14;8.55;;;4.20;;
70078;SDS011;57451;52.496;13.456;2023-06-14T12:28:42;7.32;;;3.70;;
70078;SDS011;57451;52.496;13.456;2023-06-14T12:31:14;6.93;;;3.90;;
70078;SDS011;57451;52.496;13.456;2023-06-14T12:33:43;7.53;;;3.87;;
70078;SDS011;57451;52.496;13.456;2023-06-14T12:36:13;5.75;;;3.30;;
70078;SDS011;57451;52.496;13.456;2023-06-14T12:38:40;7.43;;;3.72;;
70078;SDS011;57451;52.496;13.456;2023-06-14T12:41:08;8.50;;;4.07;;
70078;SDS011;57451;52.496;13.456;2023-06-14T12:43:37;5.38;;;3.28;;
70078;SDS011;57451;52.496;13.456;2023-06-14T12:46:06;7.90;;;3.73;;
70078;SDS011;57451;52.496;13.456;2023-06-14T12:48:33;7.00;;;3.17;;
70078;SDS011;57451;52.496;13.456;2023-06-14T12:51:01;9.10;;;3.88;;
70078;SDS011;57451;52.496;13.456;2023-06-14T12:53:32;5.38;;;3.30;;
70078;SDS011;57451;52.496;13.456;2023-06-14T12:55:59;6.53;;;3.22;;
70078;SDS011;57451;52.496;13.456;2023-06-14T12:58:27;10.07;;;3.33;;
70078;SDS011;57451;52.496;13.456;2023-06-14T13:00:56;6.18;;;3.03;;
70078;SDS011;57451;52.496;13.456;2023-06-14T13:03:23;7.88;;;3.50;;
70078;SDS011;57451;52.496;13.456;2023-06-14T13:05:51;10.07;;;3.65;;
70078;SDS011;57451;52.496;13.456;2023-06-14T13:08:19;6.18;;;3.40;;
70078;SDS011;57451;52.496;13.456;2023-06-14T13:10:51;6.70;;;3.90;;
70078;SDS011;57451;52.496;13.456;2023-06-14T13:13:18;7.53;;;3.22;;
70078;SDS011;57451;52.496;13.456;2023-06-14T13:15:47;6.70;;;3.65;;
70078;SDS011;57451;52.496;13.456;2023-06-14T13:18:18;9.20;;;3.70;;
70078;SDS011;57451;52.496;13.456;2023-06-14T13:20:45;5.75;;;3.60;;
70078;SDS011;57451;52.496;13.456;2023-06-14T13:23:16;6.93;;;3.63;;
70078;SDS011;57451;52.496;13.456;2023-06-14T13:25:43;21.80;;;4.65;;
70078;SDS011;57451;52.496;13.456;2023-06-14T13:28:11;12.20;;;4.03;;
70078;SDS011;57451;52.496;13.456;2023-06-14T13:30:39;8.90;;;3.78;;
70078;SDS011;57451;52.496;13.456;2023-06-14T13:33:07;10.60;;;3.50;;
70078;SDS011;57451;52.496;13.456;2023-06-14T13:35:36;6.17;;;3.37;;
70078;SDS011;57451;52.496;13.456;2023-06-14T13:38:03;10.25;;;4.20;;
70078;SDS011;57451;52.496;13.456;2023-06-14T13:40:31;10.40;;;3.90;;
70078;SDS011;57451;52.496;13.456;2023-06-14T13:42:58;8.07;;;3.33;;
70078;SDS011;57451;52.496;13.456;2023-06-14T13:45:26;8.48;;;3.60;;
70078;SDS011;57451;52.496;13.456;2023-06-14T13:47:54;6.80;;;3.60;;
70078;SDS011;57451;52.496;13.456;2023-06-14T13:50:22;10.18;;;3.50;;
70078;SDS011;57451;52.496;13.456;2023-06-14T13:52:51;7.22;;;3.60;;
70078;SDS011;57451;52.496;13.456;2023-06-14T13:55:18;7.28;;;4.57;;
70078;SDS011;57451;52.496;13.456;2023-06-14T13:57:46;6.53;;;3.78;;
70078;SDS011;57451;52.496;13.456;2023-06-14T14:00:14;7.70;;;3.70;;
70078;SDS011;57451;52.496;13.456;2023-06-14T14:02:43;6.70;;;3.90;;
70078;SDS011;57451;52.496;13.456;2023-06-14T14:05:14;6.80;;;3.55;;
70078;SDS011;57451;52.496;13.456;2023-06-14T14:07:41;7.90;;;3.70;;
70078;SDS011;57451;52.496;13.456;2023-06-14T14:10:10;6.78;;;3.72;;
70078;SDS011;57451;52.496;13.456;2023-06-14T14:12:40;8.80;;;3.70;;
70078;SDS011;57451;52.496;13.456;2023-06-14T14:15:08;11.00;;;3.90;;
70078;SDS011;57451;52.496;13.456;2023-06-14T14:17:40;9.77;;;4.20;;
70078;SDS011;57451;52.496;13.456;2023-06-14T14:20:08;11.20;;;4.57;;
70078;SDS011;57451;52.496;13.456;2023-06-14T14:22:38;12.77;;;4.45;;
70078;SDS011;57451;52.496;13.456;2023-06-14T14:25:12;12.77;;;4.50;;
70078;SDS011;57451;52.496;13.456;2023-06-14T14:27:40;9.00;;;4.03;;
70078;SDS011;57451;52.496;13.456;2023-06-14T14:30:07;7.35;;;3.92;;
70078;SDS011;57451;52.496;13.456;2023-06-14T14:32:35;14.63;;;4.90;;
70078;SDS011;57451;52.496;13.456;2023-06-14T14:35:03;12.60;;;4.43;;
70078;SDS011;57451;52.496;13.456;2023-06-14T14:37:31;12.37;;;4.30;;
70078;SDS011;57451;52.496;13.456;2023-06-14T14:39:59;8.10;;;3.30;;
70078;SDS011;57451;52.496;13.456;2023-06-14T14:42:29;7.22;;;3.30;;
70078;SDS011;57451;52.496;13.456;2023-06-14T14:44:56;8.35;;;3.83;;
70078;SDS011;57451;52.496;13.456;2023-06-14T14:47:24;6.20;;;3.25;;
70078;SDS011;57451;52.496;13.456;2023-06-14T14:49:52;7.23;;;3.60;;
70078;SDS011;57451;52.496;13.456;2023-06-14T14:52:19;6.70;;;3.38;;